createdAt,value
2022-10-09T00:01:08.056Z,30.63
2022-10-09T00:03:35.987Z,28.48
2022-10-09T00:06:03.953Z,30.27
2022-10-09T00:08:30.585Z,33.30
2022-10-09T00:10:57.528Z,30.63
2022-10-09T00:13:24.201Z,30.65
2022-10-09T00:15:50.913Z,32.90
2022-10-09T00:18:18.811Z,31.77
2022-10-09T00:20:46.817Z,29.25
2022-10-09T00:23:16.588Z,40.03
2022-10-09T00:25:57.003Z,38.30
2022-10-09T00:28:26.648Z,37.33
2022-10-09T00:30:54.002Z,42.10
2022-10-09T00:33:20.949Z,47.17
2022-10-09T00:35:47.830Z,46.25
2022-10-09T00:38:14.885Z,38.58
2022-10-09T00:40:41.806Z,37.35
2022-10-09T00:43:37.601Z,45.28
2022-10-09T00:46:04.408Z,36.63
2022-10-09T00:48:31.699Z,42.63
2022-10-09T00:51:01.034Z,44.85
2022-10-09T00:53:30.230Z,44.20
2022-10-09T00:55:58.129Z,42.17
2022-10-09T00:58:25.276Z,36.08
2022-10-09T01:00:52.467Z,44.30
2022-10-09T01:03:19.156Z,42.22
2022-10-09T01:05:58.021Z,40.35
2022-10-09T01:08:31.072Z,38.97
2022-10-09T01:11:26.671Z,38.28
2022-10-09T01:14:01.336Z,41.78
2022-10-09T01:16:44.834Z,41.05
2022-10-09T01:19:27.658Z,38.83
2022-10-09T01:22:23.420Z,37.75
2022-10-09T01:25:06.292Z,38.58
2022-10-09T01:27:34.558Z,40.95
2022-10-09T01:30:07.669Z,32.83
2022-10-09T01:32:38.149Z,38.58
2022-10-09T01:35:06.540Z,39.30
2022-10-09T01:37:35.484Z,37.70
2022-10-09T01:40:05.012Z,47.17
2022-10-09T01:42:32.381Z,49.70
2022-10-09T01:44:59.021Z,64.95
2022-10-09T01:47:26.204Z,72.20
2022-10-09T01:49:55.795Z,77.53
2022-10-09T01:52:33.588Z,78.45
2022-10-09T01:55:13.326Z,73.18
2022-10-09T01:57:50.643Z,84.88
2022-10-09T02:00:18.809Z,82.93
2022-10-09T02:02:47.224Z,80.85
2022-10-09T02:05:20.435Z,80.03
2022-10-09T02:07:47.380Z,78.00
2022-10-09T02:10:16.478Z,72.47
2022-10-09T02:12:49.891Z,60.75
2022-10-09T02:15:16.759Z,53.83
2022-10-09T02:17:47.677Z,53.22
2022-10-09T02:20:22.632Z,41.17
2022-10-09T02:22:49.585Z,42.35
2022-10-09T02:25:18.428Z,40.97
2022-10-09T02:27:46.206Z,38.60
2022-10-09T02:30:15.246Z,36.47
2022-10-09T02:32:41.926Z,39.75
2022-10-09T02:35:08.918Z,32.92
2022-10-09T02:37:35.400Z,40.67
2022-10-09T02:40:03.233Z,34.15
2022-10-09T02:42:31.476Z,29.15
2022-10-09T02:44:58.115Z,36.33
2022-10-09T02:47:24.630Z,31.35
2022-10-09T02:49:51.183Z,27.52
2022-10-09T02:52:17.718Z,24.58
2022-10-09T02:54:44.207Z,18.98
2022-10-09T02:57:14.250Z,24.45
2022-10-09T02:59:40.816Z,23.27
2022-10-09T03:02:07.428Z,21.67
2022-10-09T03:04:34.093Z,20.88
2022-10-09T03:07:00.595Z,21.83
2022-10-09T03:09:31.403Z,17.35
2022-10-09T03:12:00.012Z,26.05
2022-10-09T03:14:27.195Z,19.00
2022-10-09T03:16:53.679Z,20.08
2022-10-09T03:19:20.242Z,20.80
2022-10-09T03:21:46.773Z,21.02
2022-10-09T03:24:13.390Z,19.95
2022-10-09T03:26:39.996Z,22.17
2022-10-09T03:29:06.593Z,19.00
2022-10-09T03:31:51.380Z,22.10
2022-10-09T03:34:19.321Z,16.30
2022-10-09T03:36:46.090Z,20.90
2022-10-09T03:39:12.673Z,20.17
2022-10-09T03:41:39.259Z,16.70
2022-10-09T03:44:05.917Z,20.35
2022-10-09T03:46:32.567Z,21.40
2022-10-09T03:48:59.129Z,24.10
2022-10-09T03:51:26.946Z,21.60
2022-10-09T03:53:53.441Z,22.58
2022-10-09T03:56:19.996Z,23.65
2022-10-09T03:58:46.561Z,22.20
2022-10-09T04:01:13.091Z,29.20
2022-10-09T04:03:39.659Z,22.75
2022-10-09T04:06:06.518Z,31.17
2022-10-09T04:08:33.062Z,29.05
2022-10-09T04:11:01.339Z,34.75
2022-10-09T04:13:27.940Z,36.53
2022-10-09T04:15:55.605Z,34.13
2022-10-09T04:18:22.874Z,34.42
2022-10-09T04:20:51.249Z,37.83
2022-10-09T04:23:22.822Z,29.55
2022-10-09T04:25:53.932Z,38.45
2022-10-09T04:28:20.775Z,35.67
2022-10-09T04:30:47.274Z,37.72
2022-10-09T04:33:13.812Z,49.60
2022-10-09T04:35:50.897Z,49.75
2022-10-09T04:38:18.178Z,43.25
2022-10-09T04:40:44.736Z,40.78
2022-10-09T04:43:11.340Z,40.63
2022-10-09T04:45:41.593Z,45.45
2022-10-09T04:48:08.128Z,32.80
2022-10-09T04:50:34.632Z,27.30
2022-10-09T04:53:01.367Z,26.13
2022-10-09T04:55:27.894Z,24.92
2022-10-09T04:57:54.413Z,24.75
2022-10-09T05:00:21.021Z,26.60
2022-10-09T05:02:47.809Z,24.00
2022-10-09T05:05:14.765Z,26.33
2022-10-09T05:07:41.297Z,30.38
2022-10-09T05:10:08.486Z,30.63
2022-10-09T05:12:35.053Z,28.70
2022-10-09T05:15:02.141Z,29.73
2022-10-09T05:17:28.780Z,31.55
2022-10-09T05:19:55.405Z,27.58
2022-10-09T05:22:22.171Z,30.98
2022-10-09T05:24:48.721Z,32.85
2022-10-09T05:27:15.215Z,30.73
2022-10-09T05:29:41.892Z,33.53
2022-10-09T05:32:08.512Z,28.13
2022-10-09T05:34:35.667Z,26.48
2022-10-09T05:37:02.259Z,32.78
2022-10-09T05:39:28.785Z,34.78
2022-10-09T05:41:55.303Z,30.25
2022-10-09T05:44:22.007Z,35.22
2022-10-09T05:46:48.538Z,37.58
2022-10-09T05:49:15.206Z,37.38
2022-10-09T05:51:42.972Z,28.05
2022-10-09T05:54:16.552Z,24.05
2022-10-09T05:56:44.485Z,31.40
2022-10-09T05:59:19.502Z,25.90
2022-10-09T06:01:49.834Z,30.35
2022-10-09T06:04:20.051Z,34.50
2022-10-09T06:06:48.632Z,26.83
2022-10-09T06:09:23.085Z,33.83
2022-10-09T06:11:50.977Z,27.52
2022-10-09T06:14:18.246Z,27.25
2022-10-09T06:16:45.890Z,32.78
2022-10-09T06:19:15.210Z,25.92
2022-10-09T06:21:43.245Z,23.42
2022-10-09T06:24:23.263Z,26.73
2022-10-09T06:26:53.730Z,33.03
2022-10-09T06:29:20.349Z,34.92
2022-10-09T06:31:46.888Z,28.02
2022-10-09T06:34:13.483Z,31.95
2022-10-09T06:36:40.070Z,37.55
2022-10-09T06:39:08.193Z,36.05
2022-10-09T06:41:35.315Z,42.03
2022-10-09T06:44:07.801Z,52.92
2022-10-09T06:46:37.421Z,52.78
2022-10-09T06:49:05.455Z,53.45
2022-10-09T06:51:32.873Z,47.83
2022-10-09T06:54:02.139Z,57.13
2022-10-09T06:56:32.146Z,52.47
2022-10-09T06:59:03.806Z,55.35
2022-10-09T07:04:04.454Z,54.28
2022-10-09T07:06:32.595Z,60.45
2022-10-09T07:09:01.524Z,66.65
2022-10-09T07:11:34.233Z,58.40
2022-10-09T07:14:03.346Z,66.53
2022-10-09T07:16:38.381Z,75.30
2022-10-09T07:19:11.106Z,70.63
2022-10-09T07:21:41.417Z,69.82
2022-10-09T07:24:08.696Z,68.97
2022-10-09T07:26:38.461Z,72.15
2022-10-09T07:29:07.938Z,77.95
2022-10-09T07:31:34.543Z,77.55
2022-10-09T07:34:01.361Z,78.28
2022-10-09T07:36:28.103Z,70.25
2022-10-09T07:38:57.085Z,71.85
2022-10-09T07:41:25.665Z,65.82
2022-10-09T07:43:52.545Z,68.78
2022-10-09T07:46:20.891Z,69.15
2022-10-09T07:48:50.497Z,62.53
2022-10-09T07:51:27.712Z,85.38
2022-10-09T07:53:54.961Z,79.03
2022-10-09T07:56:29.281Z,81.15
2022-10-09T07:58:58.217Z,74.43
2022-10-09T08:01:27.937Z,80.10
2022-10-09T08:03:55.006Z,69.40
2022-10-09T08:06:21.906Z,73.35
2022-10-09T08:08:53.626Z,68.38
2022-10-09T08:13:49.821Z,67.28
2022-10-09T08:16:17.706Z,82.15
2022-10-09T08:18:44.273Z,65.43
2022-10-09T08:21:13.396Z,71.47
2022-10-09T08:23:39.936Z,73.75
2022-10-09T08:26:16.189Z,70.85
2022-10-09T08:28:43.524Z,83.28
2022-10-09T08:31:15.588Z,72.45
2022-10-09T08:33:42.768Z,77.60
2022-10-09T08:36:11.765Z,87.20
2022-10-09T08:38:47.140Z,80.18
2022-10-09T08:41:23.556Z,82.60
2022-10-09T08:43:56.245Z,81.93
2022-10-09T08:46:29.343Z,81.35
2022-10-09T08:48:56.406Z,91.88
2022-10-09T08:51:28.742Z,100.30
2022-10-09T08:54:04.498Z,88.78
2022-10-09T08:56:33.391Z,92.10
2022-10-09T08:59:01.920Z,99.85
2022-10-09T09:02:00.939Z,104.32
2022-10-09T09:04:59.780Z,108.90
2022-10-09T09:07:42.585Z,120.07
2022-10-09T09:10:25.426Z,109.57
2022-10-09T09:13:00.634Z,125.22
2022-10-09T09:16:02.663Z,115.03
2022-10-09T09:21:32.483Z,103.88
2022-10-09T09:24:02.785Z,119.45
2022-10-09T09:26:29.929Z,113.28
2022-10-09T09:29:01.941Z,124.28
2022-10-09T09:31:36.140Z,127.85
2022-10-09T09:34:11.235Z,138.13
2022-10-09T09:36:55.493Z,124.93
2022-10-09T09:40:23.882Z,120.72
2022-10-09T09:42:18.152Z,117.03
2022-10-09T09:44:58.197Z,119.80
2022-10-09T09:47:38.611Z,119.93
2022-10-09T09:50:18.510Z,117.53
2022-10-09T09:52:55.762Z,114.40
2022-10-09T09:55:29.103Z,107.57
2022-10-09T09:58:07.753Z,103.65
2022-10-09T10:00:35.787Z,104.57
2022-10-09T10:03:21.430Z,92.10
2022-10-09T10:05:48.164Z,85.43
2022-10-09T10:08:15.650Z,90.18
2022-10-09T10:10:47.836Z,83.80
2022-10-09T10:13:38.103Z,86.72
2022-10-09T10:16:07.397Z,77.32
2022-10-09T10:18:41.081Z,77.10
2022-10-09T10:21:14.621Z,71.90
2022-10-09T10:23:45.633Z,58.70
2022-10-09T10:26:44.183Z,61.67
2022-10-09T10:29:32.066Z,68.63
2022-10-09T10:32:10.891Z,62.78
2022-10-09T10:34:59.639Z,54.28
2022-10-09T10:37:42.890Z,51.92
2022-10-09T10:40:33.381Z,53.08
2022-10-09T10:43:12.129Z,55.30
2022-10-09T10:46:05.753Z,49.42
2022-10-09T10:48:37.893Z,50.38
2022-10-09T10:51:51.449Z,46.35
2022-10-09T10:54:36.059Z,40.72
2022-10-09T10:57:07.571Z,32.33
2022-10-09T11:02:09.684Z,32.38
2022-10-09T11:04:58.014Z,31.55
2022-10-09T11:07:50.992Z,34.47
2022-10-09T11:11:02.039Z,33.65
2022-10-09T11:13:37.038Z,37.53
2022-10-09T11:16:14.547Z,35.88
2022-10-09T11:18:56.269Z,33.45
2022-10-09T11:21:43.023Z,34.88
2022-10-09T11:24:15.600Z,24.05
2022-10-09T11:26:57.569Z,31.23
2022-10-09T11:29:31.019Z,28.90
2022-10-09T11:32:05.609Z,24.88
2022-10-09T11:34:43.024Z,27.27
2022-10-09T11:37:18.080Z,26.02
2022-10-09T11:39:45.233Z,26.45
2022-10-09T11:42:14.157Z,24.50
2022-10-09T11:44:55.778Z,17.13
2022-10-09T11:50:16.975Z,23.60
2022-10-09T11:53:04.283Z,25.60
2022-10-09T11:55:33.323Z,23.05
2022-10-09T11:58:22.952Z,30.05
2022-10-09T12:00:53.932Z,22.35
2022-10-09T12:03:34.114Z,23.17
2022-10-09T12:06:08.024Z,16.00
2022-10-09T12:08:35.906Z,19.63
2022-10-09T12:11:18.496Z,16.33
2022-10-09T12:13:47.522Z,15.88
2022-10-09T12:16:34.023Z,16.85
2022-10-09T12:19:04.460Z,19.60
2022-10-09T12:21:38.475Z,16.13
2022-10-09T12:24:07.765Z,18.98
2022-10-09T12:26:35.849Z,17.40
2022-10-09T12:29:05.026Z,15.35
2022-10-09T12:31:38.731Z,11.77
2022-10-09T12:34:17.819Z,11.57
2022-10-09T12:36:44.386Z,11.00
2022-10-09T12:39:18.365Z,12.15
2022-10-09T12:41:47.795Z,11.27
2022-10-09T12:44:35.837Z,12.38
2022-10-09T12:47:06.065Z,14.15
2022-10-09T12:49:32.959Z,11.80
2022-10-09T12:52:00.810Z,11.13
2022-10-09T12:54:30.492Z,13.50
2022-10-09T12:56:59.729Z,10.80
2022-10-09T12:59:28.812Z,14.70
2022-10-09T13:02:00.504Z,12.23
2022-10-09T13:04:31.242Z,14.52
2022-10-09T13:07:07.737Z,12.70
2022-10-09T13:09:39.707Z,13.95
2022-10-09T13:12:10.013Z,14.30
2022-10-09T13:14:46.050Z,13.77
2022-10-09T13:17:34.632Z,11.20
2022-10-09T13:20:23.908Z,16.25
2022-10-09T13:23:05.827Z,12.45
2022-10-09T13:25:39.281Z,18.33
2022-10-09T13:28:06.381Z,13.80
2022-10-09T13:30:33.598Z,13.45
2022-10-09T13:33:00.367Z,15.98
2022-10-09T13:35:26.999Z,13.55
2022-10-09T13:37:53.753Z,10.63
2022-10-09T13:40:23.791Z,9.82
2022-10-09T13:42:56.951Z,11.82
2022-10-09T13:45:23.845Z,11.43
2022-10-09T13:47:50.933Z,9.95
2022-10-09T13:50:18.495Z,11.15
2022-10-09T13:52:45.349Z,15.25
2022-10-09T13:55:12.416Z,12.45
2022-10-09T13:57:38.944Z,10.93
2022-10-09T14:00:06.760Z,10.20
2022-10-09T14:02:33.382Z,9.55
2022-10-09T14:05:00.002Z,11.02
2022-10-09T14:07:27.193Z,9.88
2022-10-09T14:09:58.616Z,11.98
2022-10-09T14:14:54.094Z,16.70
2022-10-09T14:17:20.988Z,11.70
2022-10-09T14:19:49.748Z,10.43
2022-10-09T14:22:20.270Z,11.02
2022-10-09T14:24:47.940Z,13.20
2022-10-09T14:27:14.739Z,11.43
2022-10-09T14:29:41.459Z,16.52
2022-10-09T14:32:10.718Z,16.10
2022-10-09T14:34:37.354Z,21.50
2022-10-09T14:37:18.968Z,19.13
2022-10-09T14:39:55.545Z,19.13
2022-10-09T14:42:23.311Z,19.38
2022-10-09T14:44:50.646Z,11.98
2022-10-09T14:47:18.705Z,18.67
2022-10-09T14:49:46.100Z,13.40
2022-10-09T14:52:27.131Z,16.50
2022-10-09T14:54:53.773Z,16.40
2022-10-09T14:57:20.965Z,23.88
2022-10-09T14:59:48.178Z,18.67
2022-10-09T15:02:19.856Z,15.05
2022-10-09T15:04:58.098Z,15.52
2022-10-09T15:07:28.167Z,15.27
2022-10-09T15:09:56.305Z,18.67
2022-10-09T15:12:23.237Z,17.92
2022-10-09T15:14:51.094Z,15.52
2022-10-09T15:17:18.316Z,17.33
2022-10-09T15:19:45.323Z,16.50
2022-10-09T15:22:12.488Z,15.98
2022-10-09T15:24:39.572Z,18.20
2022-10-09T15:27:06.460Z,18.58
2022-10-09T15:29:35.428Z,20.55
2022-10-09T15:32:15.743Z,22.80
2022-10-09T15:34:42.571Z,20.90
2022-10-09T15:37:09.608Z,18.55
2022-10-09T15:39:36.594Z,24.52
2022-10-09T15:42:03.838Z,16.65
2022-10-09T15:44:30.898Z,17.40
2022-10-09T15:46:57.666Z,14.93
2022-10-09T15:49:24.486Z,21.80
2022-10-09T15:51:51.501Z,21.00
2022-10-09T15:54:18.665Z,14.27
2022-10-09T15:56:45.583Z,17.52
2022-10-09T15:59:14.096Z,15.27
2022-10-09T16:01:40.975Z,17.27
2022-10-09T16:04:07.753Z,18.90
2022-10-09T16:06:34.993Z,15.55
2022-10-09T16:09:04.030Z,17.48
2022-10-09T16:11:31.413Z,18.77
2022-10-09T16:13:59.258Z,14.77
2022-10-09T16:16:27.860Z,16.92
2022-10-09T16:18:56.000Z,18.05
2022-10-09T16:21:25.693Z,14.05
2022-10-09T16:23:58.099Z,20.17
2022-10-09T16:26:26.937Z,22.67
2022-10-09T16:28:53.829Z,18.80
2022-10-09T16:31:30.269Z,17.33
2022-10-09T16:33:57.656Z,17.00
2022-10-09T16:36:24.177Z,13.88
2022-10-09T16:38:50.966Z,18.15
2022-10-09T16:41:20.321Z,15.00
2022-10-09T16:43:49.109Z,17.50
2022-10-09T16:49:02.761Z,14.93
2022-10-09T16:51:34.731Z,13.55
2022-10-09T16:54:03.964Z,25.75
2022-10-09T16:56:33.666Z,12.38
2022-10-09T16:59:03.341Z,15.13
2022-10-09T17:01:30.244Z,13.85
2022-10-09T17:03:57.755Z,12.25
2022-10-09T17:06:25.481Z,10.45
2022-10-09T17:08:53.542Z,11.75
2022-10-09T17:11:25.589Z,13.82
2022-10-09T17:13:58.651Z,13.77
2022-10-09T17:16:28.692Z,16.30
2022-10-09T17:18:55.607Z,10.75
2022-10-09T17:21:27.908Z,10.55
2022-10-09T17:24:00.005Z,12.75
2022-10-09T17:26:28.375Z,18.55
2022-10-09T17:28:57.344Z,17.58
2022-10-09T17:31:25.327Z,12.93
2022-10-09T17:33:56.487Z,14.20
2022-10-09T17:36:25.950Z,15.85
2022-10-09T17:38:55.833Z,16.42
2022-10-09T17:41:24.341Z,14.23
2022-10-09T17:43:52.488Z,18.02
2022-10-09T17:46:20.209Z,20.27
2022-10-09T17:48:53.215Z,12.32
2022-10-09T17:51:23.941Z,14.60
2022-10-09T17:53:51.073Z,19.27
2022-10-09T17:56:18.779Z,16.45
2022-10-09T17:58:47.700Z,15.68
2022-10-09T18:01:15.677Z,20.15
2022-10-09T18:03:43.505Z,16.98
2022-10-09T18:06:14.312Z,12.98
2022-10-09T18:08:41.321Z,16.10
2022-10-09T18:11:11.688Z,16.23
2022-10-09T18:13:39.563Z,14.38
2022-10-09T18:16:11.001Z,17.95
2022-10-09T18:18:38.036Z,18.25
2022-10-09T18:21:07.349Z,14.25
2022-10-09T18:23:34.735Z,12.57
2022-10-09T18:26:07.468Z,17.13
2022-10-09T18:28:34.522Z,18.50
2022-10-09T18:31:05.484Z,20.63
2022-10-09T18:33:36.232Z,16.75
2022-10-09T18:36:05.948Z,20.00
2022-10-09T18:38:34.001Z,16.77
2022-10-09T18:41:02.756Z,17.08
2022-10-09T18:43:29.761Z,16.88
2022-10-09T18:45:58.058Z,19.33
2022-10-09T18:48:29.155Z,17.65
2022-10-09T18:50:56.559Z,18.35
2022-10-09T18:53:23.547Z,14.50
2022-10-09T18:55:50.445Z,16.98
2022-10-09T18:58:21.857Z,17.85
2022-10-09T19:00:50.612Z,20.17
2022-10-09T19:03:17.162Z,20.40
2022-10-09T19:05:45.097Z,17.08
2022-10-09T19:08:12.461Z,16.98
2022-10-09T19:10:39.307Z,23.05
2022-10-09T19:13:06.018Z,19.10
2022-10-09T19:15:33.158Z,24.05
2022-10-09T19:18:00.041Z,18.48
2022-10-09T19:20:29.411Z,19.35
2022-10-09T19:22:56.616Z,18.52
2022-10-09T19:25:25.029Z,21.83
2022-10-09T19:27:52.649Z,20.20
2022-10-09T19:30:20.195Z,19.05
2022-10-09T19:32:48.611Z,17.45
2022-10-09T19:35:16.086Z,16.83
2022-10-09T19:37:44.779Z,15.35
2022-10-09T19:40:11.995Z,19.85
2022-10-09T19:42:39.414Z,19.50
2022-10-09T19:45:07.012Z,15.35
2022-10-09T19:47:34.235Z,16.55
2022-10-09T19:50:20.103Z,22.60
2022-10-09T19:52:47.544Z,16.63
2022-10-09T19:55:15.505Z,23.50
2022-10-09T19:57:42.799Z,19.60
2022-10-09T20:00:10.626Z,18.52
2022-10-09T20:02:39.189Z,17.42
2022-10-09T20:05:06.454Z,19.02
2022-10-09T20:07:35.723Z,19.63
2022-10-09T20:10:02.967Z,17.95
2022-10-09T20:12:30.397Z,18.67
2022-10-09T20:14:59.010Z,17.73
2022-10-09T20:17:25.756Z,20.80
2022-10-09T20:19:52.632Z,24.13
2022-10-09T20:22:20.122Z,17.83
2022-10-09T20:24:46.876Z,22.27
2022-10-09T20:27:13.607Z,18.50
2022-10-09T20:29:40.364Z,24.45
2022-10-09T20:32:07.128Z,22.55
2022-10-09T20:34:33.796Z,21.55
2022-10-09T20:37:04.527Z,24.17
2022-10-09T20:39:34.880Z,22.73
2022-10-09T20:42:01.649Z,22.85
2022-10-09T20:44:28.337Z,20.77
2022-10-09T20:46:57.443Z,24.98
2022-10-09T20:49:24.226Z,21.38
2022-10-09T20:51:53.225Z,26.08
2022-10-09T20:54:21.616Z,20.48
2022-10-09T20:56:49.742Z,23.52
2022-10-09T20:59:17.387Z,22.80
2022-10-09T21:01:44.620Z,21.70
2022-10-09T21:04:12.450Z,28.50
2022-10-09T21:06:39.261Z,25.42
2022-10-09T21:09:06.001Z,27.95
2022-10-09T21:11:34.803Z,21.05
2022-10-09T21:14:03.191Z,21.92
2022-10-09T21:16:29.981Z,22.98
2022-10-09T21:18:59.639Z,26.30
2022-10-09T21:21:27.655Z,30.60
2022-10-09T21:23:57.111Z,22.80
2022-10-09T21:26:27.997Z,23.58
2022-10-09T21:28:59.285Z,25.58
2022-10-09T21:31:28.819Z,22.48
2022-10-09T21:33:56.028Z,30.88
2022-10-09T21:36:33.452Z,29.80
2022-10-09T21:39:01.348Z,24.05
2022-10-09T21:41:28.132Z,24.67
2022-10-09T21:43:54.941Z,27.17
2022-10-09T21:46:21.874Z,30.75
2022-10-09T21:48:48.482Z,23.80
2022-10-09T21:51:15.156Z,24.02
2022-10-09T21:53:41.949Z,25.65
2022-10-09T21:56:09.930Z,25.88
2022-10-09T21:58:48.102Z,20.45
2022-10-09T22:01:15.765Z,30.17
2022-10-09T22:03:42.446Z,25.08
2022-10-09T22:06:17.771Z,27.17
2022-10-09T22:08:48.802Z,25.35
2022-10-09T22:11:16.992Z,29.23
2022-10-09T22:13:46.394Z,25.45
2022-10-09T22:16:15.112Z,26.05
2022-10-09T22:18:42.018Z,24.52
2022-10-09T22:21:13.456Z,32.42
2022-10-09T22:23:41.981Z,26.67
2022-10-09T22:26:12.718Z,21.77
2022-10-09T22:28:39.874Z,26.50
2022-10-09T22:31:11.189Z,31.35
2022-10-09T22:33:38.213Z,25.30
2022-10-09T22:36:11.656Z,26.08
2022-10-09T22:38:39.408Z,25.05
2022-10-09T22:41:21.213Z,27.88
2022-10-09T22:43:50.811Z,29.20
2022-10-09T22:46:23.385Z,27.90
2022-10-09T22:49:00.167Z,29.35
2022-10-09T22:51:31.206Z,24.05
2022-10-09T22:53:59.550Z,28.05
2022-10-09T22:56:45.772Z,22.77
2022-10-09T22:59:15.702Z,25.80
2022-10-09T23:02:07.030Z,30.00
2022-10-09T23:04:38.465Z,28.27
2022-10-09T23:07:08.479Z,30.98
2022-10-09T23:09:38.601Z,21.70
2022-10-09T23:12:06.486Z,36.83
2022-10-09T23:14:33.219Z,28.35
2022-10-09T23:17:00.822Z,35.05
2022-10-09T23:19:29.012Z,31.70
2022-10-09T23:21:57.659Z,28.95
2022-10-09T23:24:24.892Z,27.20
2022-10-09T23:26:52.509Z,28.40
2022-10-09T23:29:28.303Z,34.97
2022-10-09T23:31:55.185Z,26.52
2022-10-09T23:34:22.013Z,32.65
2022-10-09T23:37:02.576Z,28.55
2022-10-09T23:39:29.161Z,27.17
2022-10-09T23:41:55.987Z,29.23
2022-10-09T23:44:22.732Z,26.50
2022-10-09T23:46:49.515Z,29.77
2022-10-09T23:49:16.255Z,32.53
2022-10-09T23:51:42.814Z,31.13
2022-10-09T23:54:09.909Z,28.27
2022-10-09T23:56:37.281Z,27.65
2022-10-09T23:59:08.236Z,32.97
